Time;durP1;ratioP1;P1;durP2;ratioP2;P2;SDS_P1;SDS_P2;PMS_P1;PMS_P2;Temp;Humidity;BMP_temperature;BMP_pressure;BME280_temperature;BME280_humidity;BME280_pressure;Samples;Min_cycle;Max_cycle;Signal;HPM_P1;HPM_P2
2022/12/10 00:01:29;;;;;;;51.92;24.13;;;;;;;-0.83;100.00;100174.97;5063715;28;20166;-74
2022/12/10 00:03:56;;;;;;;53.55;25.77;;;;;;;-0.84;100.00;100170.66;5081431;28;20482;-74
2022/12/10 00:06:27;;;;;;;47.30;21.05;;;;;;;-0.86;100.00;100175.75;5078977;28;20493;-74
2022/12/10 00:08:54;;;;;;;49.20;20.25;;;;;;;-0.85;100.00;100176.59;5077281;28;20040;-73
2022/12/10 00:11:23;;;;;;;48.25;23.67;;;;;;;-0.86;100.00;100168.03;5077541;28;20525;-75
2022/12/10 00:13:51;;;;;;;52.30;20.92;;;;;;;-0.84;100.00;100168.94;5067400;28;20040;-74
2022/12/10 00:16:21;;;;;;;52.95;23.38;;;;;;;-0.81;100.00;100170.72;5074066;28;20036;-74
2022/12/10 00:18:48;;;;;;;58.60;25.90;;;;;;;-0.84;100.00;100168.06;5075956;28;20601;-74
2022/12/10 00:21:22;;;;;;;51.53;21.70;;;;;;;-0.85;100.00;100167.22;5075909;28;20565;-74
2022/12/10 00:23:49;;;;;;;60.75;22.85;;;;;;;-0.83;100.00;100177.53;5060836;28;20109;-75
2022/12/10 00:26:23;;;;;;;53.35;24.25;;;;;;;-0.81;100.00;100175.00;5076564;28;21318;-76
2022/12/10 00:28:51;;;;;;;49.53;22.30;;;;;;;-0.81;100.00;100175.88;5073964;28;20052;-73
2022/12/10 00:31:28;;;;;;;53.60;22.92;;;;;;;-0.78;100.00;100181.13;5061172;28;20044;-74
2022/12/10 00:33:57;;;;;;;58.83;22.55;;;;;;;-0.78;100.00;100181.13;5074389;28;20713;-73
2022/12/10 00:36:28;;;;;;;52.33;23.95;;;;;;;-0.77;100.00;100182.88;5079692;28;20044;-74
2022/12/10 00:38:55;;;;;;;52.92;22.77;;;;;;;-0.76;100.00;100181.16;5077451;28;20044;-74
2022/12/10 00:41:22;;;;;;;50.75;21.08;;;;;;;-0.77;100.00;100182.88;5076299;28;20447;-73
2022/12/10 00:43:49;;;;;;;48.22;21.70;;;;;;;-0.76;100.00;100186.28;5079677;28;20060;-74
2022/12/10 00:46:17;;;;;;;47.58;20.50;;;;;;;-0.76;100.00;100184.56;5078349;28;20050;-73
2022/12/10 00:48:44;;;;;;;48.90;21.38;;;;;;;-0.74;100.00;100192.38;5073873;28;20238;-73
2022/12/10 00:51:24;;;;;;;56.88;23.10;;;;;;;-0.72;100.00;100189.00;5077325;28;20052;-73
2022/12/10 00:53:53;;;;;;;54.17;24.13;;;;;;;-0.71;100.00;100190.72;5083771;28;20040;-73
2022/12/10 00:56:24;;;;;;;47.80;19.65;;;;;;;-0.69;100.00;100193.38;5083472;28;20036;-75
2022/12/10 00:58:51;;;;;;;48.80;23.55;;;;;;;-0.71;100.00;100188.16;5061592;28;20048;-75
2022/12/10 01:01:37;;;;;;;51.15;22.50;;;;;;;-0.66;100.00;100190.88;5061061;28;20056;-75
2022/12/10 01:04:11;;;;;;;59.72;23.83;;;;;;;-0.68;100.00;100192.53;5086152;28;20772;-75
2022/12/10 01:06:45;;;;;;;55.47;24.00;;;;;;;-0.66;100.00;100198.59;5078651;28;20354;-75
2022/12/10 01:09:15;;;;;;;52.40;22.05;;;;;;;-0.65;100.00;100200.34;5080871;28;20044;-75
2022/12/10 01:11:44;;;;;;;53.97;22.52;;;;;;;-0.65;100.00;100196.88;5078670;28;20054;-75
2022/12/10 01:14:15;;;;;;;51.60;20.40;;;;;;;-0.69;100.00;100204.50;5079305;28;20043;-75
2022/12/10 01:16:42;;;;;;;54.72;21.58;;;;;;;-0.73;100.00;100197.53;5076650;28;20039;-76
2022/12/10 01:19:08;;;;;;;50.80;23.27;;;;;;;-0.73;100.00;100210.41;5074739;28;20052;-75
2022/12/10 01:21:36;;;;;;;51.03;22.17;;;;;;;-0.75;100.00;100201.75;5076874;28;20139;-75
2022/12/10 01:24:03;;;;;;;57.30;22.50;;;;;;;-0.76;100.00;100206.84;5075850;28;20036;-74
2022/12/10 01:26:33;;;;;;;53.25;21.85;;;;;;;-0.77;100.00;100213.69;5080211;28;20043;-73
2022/12/10 01:29:01;;;;;;;46.42;20.23;;;;;;;-0.78;100.00;100218.78;5078248;28;20048;-74
2022/12/10 01:31:33;;;;;;;51.30;21.45;;;;;;;-0.77;100.00;100215.38;5062179;28;20056;-74
2022/12/10 01:34:00;;;;;;;48.85;22.13;;;;;;;-0.77;100.00;100220.53;5084229;28;20040;-73
2022/12/10 01:36:35;;;;;;;48.72;20.77;;;;;;;-0.79;100.00;100212.78;5065681;28;20058;-74
2022/12/10 01:39:05;;;;;;;47.38;21.65;;;;;;;-0.78;100.00;100217.09;5078226;28;20549;-74
2022/12/10 01:41:42;;;;;;;46.97;19.77;;;;;;;-0.78;100.00;100213.63;5065954;28;20051;-73
2022/12/10 01:44:08;;;;;;;44.38;19.80;;;;;;;-0.80;100.00;100217.88;5083650;28;20046;-74
2022/12/10 01:46:38;;;;;;;41.45;19.40;;;;;;;-0.81;100.00;100221.25;5081947;28;20093;-74
2022/12/10 01:49:12;;;;;;;47.72;20.50;;;;;;;-0.83;100.00;100221.22;5077335;28;20048;-73
2022/12/10 01:51:42;;;;;;;45.33;19.35;;;;;;;-0.83;100.00;100226.38;5077980;28;21002;-74
2022/12/10 01:54:17;;;;;;;43.22;19.63;;;;;;;-0.85;100.00;100223.75;5077262;28;20097;-74
2022/12/10 01:56:48;;;;;;;41.55;18.00;;;;;;;-0.87;100.00;100227.97;5080283;28;20044;-73
2022/12/10 01:59:15;;;;;;;47.00;18.35;;;;;;;-0.82;100.00;100228.13;5071079;28;20418;-74
2022/12/10 02:02:03;;;;;;;47.03;18.60;;;;;;;-0.82;100.00;100225.53;5074935;28;20510;-74
2022/12/10 02:04:53;;;;;;;42.05;17.40;;;;;;;-0.81;100.00;100222.13;5079385;28;20761;-74
2022/12/10 02:07:34;;;;;;;35.85;16.67;;;;;;;-0.83;100.00;100223.78;5076066;28;20546;-73
2022/12/10 02:10:29;;;;;;;41.03;15.93;;;;;;;-0.79;100.00;100224.75;5080569;28;20040;-74
2022/12/10 02:13:10;;;;;;;37.35;17.10;;;;;;;-0.77;100.00;100223.97;5075054;28;20068;-76
2022/12/10 02:15:51;;;;;;;34.00;16.75;;;;;;;-0.78;100.00;100224.81;5074820;28;20048;-73
2022/12/10 02:18:39;;;;;;;44.50;17.92;;;;;;;-0.76;100.00;100224.84;5075202;28;20051;-73
2022/12/10 02:21:20;;;;;;;33.17;15.35;;;;;;;-0.74;100.00;100221.50;5076628;28;20051;-75
2022/12/10 02:23:57;;;;;;;31.75;13.57;;;;;;;-0.72;100.00;100214.72;5078117;28;20059;-75
2022/12/10 02:26:33;;;;;;;28.83;15.05;;;;;;;-0.74;100.00;100218.06;5079812;28;20048;-73
2022/12/10 02:29:22;;;;;;;30.45;14.60;;;;;;;-0.76;100.00;100207.72;5078837;28;20180;-74
2022/12/10 02:31:56;;;;;;;32.20;15.77;;;;;;;-0.75;100.00;100206.03;5070567;28;20105;-74
2022/12/10 02:34:25;;;;;;;34.22;15.32;;;;;;;-0.75;100.00;100203.47;5078998;28;20043;-74
2022/12/10 02:36:55;;;;;;;29.85;13.82;;;;;;;-0.75;100.00;100201.75;5078922;28;20044;-73
2022/12/10 02:39:40;;;;;;;28.25;11.48;;;;;;;-0.76;100.00;100202.56;5079488;28;20123;-73
2022/12/10 02:42:08;;;;;;;;;;;;;;;-0.78;100.00;100201.66;5082442;28;20071;-74
2022/12/10 02:44:37;;;;;;;25.48;11.48;;;;;;;-0.77;100.00;100212.81;5075437;28;20407;-74
2022/12/10 02:47:06;;;;;;;30.60;13.90;;;;;;;-0.76;100.00;100209.41;5080497;28;20068;-73
2022/12/10 02:49:33;;;;;;;24.58;12.85;;;;;;;-0.76;100.00;100210.28;5077351;28;20052;-75
2022/12/10 02:52:09;;;;;;;20.83;11.95;;;;;;;-0.77;100.00;100221.41;5074995;28;20048;-74
2022/12/10 02:54:45;;;;;;;24.42;12.18;;;;;;;-0.74;100.00;100212.94;5058384;28;20114;-76
2022/12/10 02:57:38;;;;;;;27.27;12.00;;;;;;;-0.75;100.00;100221.47;5073571;28;20051;-73
2022/12/10 03:00:24;;;;;;;23.95;12.23;;;;;;;-0.73;100.00;100214.66;5080099;28;20051;-75
2022/12/10 03:03:39;;;;;;;31.65;14.70;;;;;;;-0.71;100.00;100213.88;5080718;28;20032;-74
2022/12/10 03:06:35;;;;;;;31.42;14.93;;;;;;;-0.70;100.00;100212.19;5058954;28;20039;-74
2022/12/10 03:09:09;;;;;;;30.33;15.93;;;;;;;-0.72;100.00;100211.25;5073540;28;20051;-74
2022/12/10 03:11:36;;;;;;;35.28;15.15;;;;;;;-0.71;100.00;100213.88;5080178;28;20043;-73
2022/12/10 03:14:19;;;;;;;34.25;14.68;;;;;;;-0.71;100.00;100207.88;5078885;28;20522;-76
2022/12/10 03:16:56;;;;;;;30.38;14.88;;;;;;;-0.71;100.00;100216.44;5080472;28;20044;-74
2022/12/10 03:19:30;;;;;;;33.55;13.55;;;;;;;-0.70;100.00;100218.19;5075995;28;20545;-74
2022/12/10 03:21:57;;;;;;;;;;;;;;;-0.69;100.00;100219.94;5080137;28;20044;-74
2022/12/10 03:24:27;;;;;;;32.22;13.88;;;;;;;-0.69;100.00;100213.94;5081129;28;19928;-73
2022/12/10 03:26:54;;;;;;;35.40;15.48;;;;;;;-0.68;100.00;100211.41;5062291;28;20055;-74
2022/12/10 03:29:28;;;;;;;32.15;14.30;;;;;;;-0.68;100.00;100218.22;5076724;28;20040;-73
2022/12/10 03:31:56;;;;;;;28.80;14.38;;;;;;;-0.69;100.00;100217.38;5077315;28;20040;-73
2022/12/10 03:34:23;;;;;;;33.80;15.23;;;;;;;-0.70;100.00;100210.47;5077657;28;20028;-74
2022/12/10 03:36:51;;;;;;;36.33;17.17;;;;;;;-0.72;100.00;100201.88;5078317;28;20459;-74
2022/12/10 03:39:18;;;;;;;31.92;13.80;;;;;;;-0.72;100.00;100209.56;5081320;28;20044;-73
2022/12/10 03:41:44;;;;;;;28.67;15.30;;;;;;;-0.73;100.00;100205.25;5078138;28;20056;-74
2022/12/10 03:44:11;;;;;;;41.38;17.45;;;;;;;-0.71;100.00;100210.44;5064301;28;20036;-73
2022/12/10 03:46:38;;;;;;;39.33;16.92;;;;;;;-0.71;100.00;100213.88;5077474;28;20101;-75
2022/12/10 03:49:06;;;;;;;36.33;16.55;;;;;;;-0.74;100.00;100221.50;5078860;28;20481;-73
2022/12/10 03:51:33;;;;;;;43.13;20.70;;;;;;;-0.74;100.00;100213.78;5076772;28;20113;-73
2022/12/10 03:53:59;;;;;;;41.80;19.05;;;;;;;-0.74;100.00;100205.22;5078657;28;20044;-74
2022/12/10 03:56:26;;;;;;;39.78;16.80;;;;;;;-0.71;100.00;100220.72;5077900;28;20434;-75
2022/12/10 03:58:52;;;;;;;40.25;16.52;;;;;;;-0.74;100.00;100216.34;5076004;28;20044;-74
2022/12/10 04:01:21;;;;;;;38.30;17.15;;;;;;;-0.75;100.00;100218.88;5077648;28;20055;-74
2022/12/10 04:03:47;;;;;;;30.55;16.05;;;;;;;-0.77;100.00;100220.53;5076841;28;20048;-75
2022/12/10 04:06:20;;;;;;;35.53;16.98;;;;;;;-0.77;100.00;100220.53;5077611;28;20060;-75
2022/12/10 04:08:47;;;;;;;33.08;15.90;;;;;;;-0.82;100.00;100215.25;5073069;28;20039;-75
2022/12/10 04:11:15;;;;;;;36.78;16.25;;;;;;;-0.78;100.00;100223.91;5075696;28;20040;-74
2022/12/10 04:16:27;;;;;;;32.65;16.30;;;;;;;-0.79;100.00;100223.06;5061932;28;20036;-74
2022/12/10 04:19:00;;;;;;;33.45;17.13;;;;;;;-0.78;100.00;100235.09;5076507;28;20897;-74
2022/12/10 04:27:19;;;;;;;31.75;15.55;;;;;;;-0.77;100.00;100233.38;5073135;28;20071;-75
2022/12/10 04:29:46;;;;;;;41.42;16.63;;;;;;;-0.80;100.00;100228.16;5075775;28;20042;-75
2022/12/10 04:32:13;;;;;;;36.95;18.77;;;;;;;-0.82;100.00;100225.53;5074820;28;20063;-75
2022/12/10 04:34:40;;;;;;;37.63;14.50;;;;;;;-0.87;100.00;100227.09;5077486;28;20040;-75
2022/12/10 04:37:06;;;;;;;38.67;17.40;;;;;;;-0.88;100.00;100225.34;5071257;28;20040;-75
2022/12/10 04:39:34;;;;;;;34.83;15.73;;;;;;;-0.89;100.00;100239.00;5073753;28;20095;-74
2022/12/10 04:42:01;;;;;;;29.10;14.20;;;;;;;-0.92;100.00;100228.66;5072328;28;20159;-74
2022/12/10 04:44:28;;;;;;;32.22;14.90;;;;;;;-0.90;100.00;100229.56;5073985;28;20055;-73
2022/12/10 04:46:55;;;;;;;33.72;16.63;;;;;;;-0.92;100.00;100237.22;5073578;28;20105;-74
2022/12/10 04:49:21;;;;;;;33.72;16.90;;;;;;;-0.95;100.00;100233.69;5074371;28;20060;-74
2022/12/10 04:51:48;;;;;;;30.33;15.35;;;;;;;-0.97;100.00;100231.06;5075463;28;20044;-74
2022/12/10 04:54:15;;;;;;;33.28;15.90;;;;;;;-0.96;100.00;100234.53;5075544;28;20052;-73
2022/12/10 04:56:42;;;;;;;34.38;15.35;;;;;;;-1.00;100.00;100231.84;5072714;28;20040;-76
2022/12/10 04:59:10;;;;;;;31.17;15.88;;;;;;;-1.00;100.00;100231.84;5071658;28;20092;-74
2022/12/10 05:01:36;;;;;;;29.90;14.45;;;;;;;-1.01;100.00;100230.09;5071285;28;20040;-74
2022/12/10 05:04:08;;;;;;;33.42;15.25;;;;;;;-1.01;100.00;100236.94;5075241;28;20043;-74
2022/12/10 05:06:35;;;;;;;30.35;14.70;;;;;;;-1.05;100.00;100229.97;5076847;28;20044;-74
2022/12/10 05:09:03;;;;;;;29.33;14.93;;;;;;;-1.07;100.00;100237.63;5074621;28;20036;-74
2022/12/10 05:11:32;;;;;;;35.90;14.45;;;;;;;-1.07;100.00;100239.31;5077702;28;20035;-73
2022/12/10 05:13:59;;;;;;;24.50;14.07;;;;;;;-1.14;100.00;100233.13;5062455;28;20130;-74
2022/12/10 05:16:29;;;;;;;35.08;17.40;;;;;;;-1.19;100.00;100238.13;5058963;28;20055;-74
2022/12/10 05:18:57;;;;;;;29.45;13.63;;;;;;;-1.20;100.00;100240.63;5057685;28;20047;-74
2022/12/10 05:23:27;;;;;;;26.80;14.23;;;;;;;-1.21;100.00;100242.31;5059595;28;20140;-74
2022/12/10 05:24:14;;;;;;;28.45;13.68;;;;;;;-1.22;100.00;100239.72;5073299;28;20074;-74
2022/12/10 05:26:41;;;;;;;25.85;12.25;;;;;;;-1.24;100.00;100233.63;5059437;28;20056;-73
2022/12/10 05:29:07;;;;;;;24.75;12.25;;;;;;;-1.26;100.00;100238.72;5075188;28;20059;-75
2022/12/10 05:31:34;;;;;;;31.00;14.13;;;;;;;-1.27;100.00;100242.13;5055013;28;20057;-74
2022/12/10 05:34:01;;;;;;;24.02;12.85;;;;;;;-1.27;100.00;100234.41;5058771;28;20048;-74
2022/12/10 05:36:31;;;;;;;23.63;11.30;;;;;;;-1.27;100.00;100236.13;5073218;28;20385;-74
2022/12/10 05:38:58;;;;;;;24.92;12.38;;;;;;;-1.27;100.00;100236.13;5080633;28;20051;-74
2022/12/10 05:41:28;;;;;;;24.83;11.85;;;;;;;-1.24;100.00;100237.09;5079320;28;20799;-74
2022/12/10 05:43:57;;;;;;;21.48;11.20;;;;;;;-1.22;100.00;100242.28;5082298;28;20098;-74
2022/12/10 05:46:27;;;;;;;21.15;9.77;;;;;;;-1.19;100.00;100234.66;5076205;28;20708;-75
2022/12/10 05:48:55;;;;;;;23.55;11.02;;;;;;;-1.17;100.00;100245.88;5076659;28;20419;-73
2022/12/10 05:51:25;;;;;;;24.77;12.15;;;;;;;-1.15;100.00;100246.78;5079175;28;20044;-75
2022/12/10 05:53:53;;;;;;;29.55;12.48;;;;;;;-1.15;100.00;100249.34;5081714;28;20121;-75
2022/12/10 05:56:22;;;;;;;25.17;11.38;;;;;;;-1.14;100.00;100250.22;5079186;28;20040;-73
2022/12/10 05:58:52;;;;;;;24.40;11.77;;;;;;;-1.14;100.00;100252.81;5076411;28;20051;-73
2022/12/10 06:01:23;;;;;;;23.75;11.98;;;;;;;-1.13;100.00;100255.41;5078997;28;20037;-75
2022/12/10 06:03:52;;;;;;;27.75;11.35;;;;;;;-1.13;100.00;100263.13;5080294;28;21485;-73
2022/12/10 06:06:30;;;;;;;20.92;10.13;;;;;;;-1.12;100.00;100256.28;5065898;28;20147;-73
2022/12/10 06:08:58;;;;;;;31.35;13.23;;;;;;;-1.14;100.00;100261.38;5080134;28;20070;-73
2022/12/10 06:11:26;;;;;;;23.15;11.88;;;;;;;-1.18;100.00;100270.66;5077563;28;20052;-74
2022/12/10 06:13:52;;;;;;;18.38;9.52;;;;;;;-1.20;100.00;100264.63;5063275;28;20792;-73
2022/12/10 06:16:19;;;;;;;24.30;11.88;;;;;;;-1.17;100.00;100268.97;5063673;28;20058;-74
2022/12/10 06:18:45;;;;;;;23.35;11.63;;;;;;;-1.19;100.00;100268.06;5077083;28;20052;-75
2022/12/10 06:21:15;;;;;;;21.38;12.15;;;;;;;-1.22;100.00;100270.53;5079290;28;20047;-73
2022/12/10 06:23:43;;;;;;;20.63;11.23;;;;;;;-1.23;100.00;100268.78;5078718;28;20036;-73
2022/12/10 06:26:14;;;;;;;25.00;12.57;;;;;;;-1.25;100.00;100275.53;5080008;28;20047;-75
2022/12/10 06:28:41;;;;;;;21.52;11.27;;;;;;;-1.22;100.00;100285.94;5079922;28;20040;-75
2022/12/10 06:31:10;;;;;;;20.23;10.98;;;;;;;-1.24;100.00;100274.72;5080322;28;20474;-75
2022/12/10 06:33:37;;;;;;;23.70;11.75;;;;;;;-1.27;100.00;100274.63;5080368;28;20032;-75
2022/12/10 06:36:06;;;;;;;21.55;12.65;;;;;;;-1.29;100.00;100281.41;5077543;28;20037;-74
2022/12/10 06:38:34;;;;;;;23.15;11.75;;;;;;;-1.33;100.00;100278.75;5076852;28;20044;-74
2022/12/10 06:41:04;;;;;;;22.27;12.63;;;;;;;-1.35;100.00;100280.38;5081887;28;20051;-75
2022/12/10 06:43:31;;;;;;;24.77;13.40;;;;;;;-1.38;100.00;100280.28;5079624;28;20046;-75
2022/12/10 06:45:57;;;;;;;22.67;11.10;;;;;;;-1.38;100.00;100289.69;5084316;28;20036;-73
2022/12/10 06:48:24;;;;;;;26.25;12.18;;;;;;;-1.41;100.00;100281.88;5077769;28;20048;-73
2022/12/10 06:50:51;;;;;;;29.67;13.20;;;;;;;-1.51;100.00;100283.28;5062189;28;20045;-74
2022/12/10 06:53:17;;;;;;;28.27;13.55;;;;;;;-1.59;100.00;100285.59;5076145;28;20040;-74
2022/12/10 06:55:46;;;;;;;22.50;12.07;;;;;;;-1.63;100.00;100282.84;5080115;28;20036;-73
2022/12/10 06:58:12;;;;;;;24.13;10.90;;;;;;;-1.68;100.00;100288.69;5077819;28;20048;-73
2022/12/10 07:00:39;;;;;;;23.65;12.25;;;;;;;-1.69;100.00;100289.50;5079081;28;20051;-73
2022/12/10 07:03:05;;;;;;;26.95;12.90;;;;;;;-1.69;100.00;100299.78;5077071;28;20126;-73
2022/12/10 07:05:32;;;;;;;25.17;11.90;;;;;;;-1.68;100.00;100286.13;5074504;28;20066;-74
2022/12/10 07:07:58;;;;;;;21.10;10.63;;;;;;;-1.67;100.00;100284.41;5077093;28;20513;-74
2022/12/10 07:10:25;;;;;;;21.48;9.93;;;;;;;-1.65;100.00;100287.06;5078250;28;20051;-74
2022/12/10 07:12:51;;;;;;;24.88;11.00;;;;;;;-1.63;100.00;100293.09;5077089;28;20036;-75
2022/12/10 07:15:18;;;;;;;23.13;11.57;;;;;;;-1.62;100.00;100295.72;5078647;28;20857;-72
2022/12/10 07:17:44;;;;;;;17.13;8.95;;;;;;;-1.59;100.00;100300.97;5079482;28;20044;-73
2022/12/10 07:20:12;;;;;;;21.02;11.38;;;;;;;-1.56;100.00;100300.22;5075780;28;20067;-73
2022/12/10 07:22:39;;;;;;;15.40;9.10;;;;;;;-1.56;100.00;100307.91;5078021;28;20114;-73
2022/12/10 07:25:06;;;;;;;17.60;9.10;;;;;;;-1.55;100.00;100301.94;5078844;28;20336;-73
2022/12/10 07:27:32;;;;;;;20.80;9.70;;;;;;;-1.55;100.00;100312.19;5078095;28;20052;-74
2022/12/10 07:29:59;;;;;;;19.63;9.88;;;;;;;-1.54;100.00;100311.38;5057972;28;20758;-73
2022/12/10 07:32:27;;;;;;;19.58;10.27;;;;;;;-1.54;100.00;100313.97;5077583;28;20055;-74
2022/12/10 07:34:54;;;;;;;22.83;10.55;;;;;;;-1.52;100.00;100320.03;5076382;28;20044;-74
2022/12/10 07:37:21;;;;;;;23.63;11.25;;;;;;;-1.49;100.00;100322.69;5076753;28;20794;-74
2022/12/10 07:39:47;;;;;;;24.15;11.68;;;;;;;-1.45;100.00;100324.53;5077181;28;20613;-74
2022/12/10 07:42:14;;;;;;;24.83;10.73;;;;;;;-1.45;100.00;100327.09;5078916;28;20056;-74
2022/12/10 07:44:41;;;;;;;25.10;13.20;;;;;;;-1.45;100.00;100329.66;5077362;28;20051;-74
2022/12/10 07:47:07;;;;;;;22.80;12.45;;;;;;;-1.44;100.00;100338.25;5080876;28;20044;-72
2022/12/10 07:49:34;;;;;;;24.05;12.65;;;;;;;-1.40;100.00;100345.25;5078096;28;20040;-73
2022/12/10 07:52:00;;;;;;;22.80;12.30;;;;;;;-1.41;100.00;100336.69;5081344;28;20032;-73
2022/12/10 07:54:27;;;;;;;23.42;12.25;;;;;;;-1.40;100.00;100338.41;5079547;28;20504;-73
2022/12/10 07:56:53;;;;;;;25.58;12.45;;;;;;;-1.42;100.00;100339.19;5080128;28;20060;-73
2022/12/10 07:59:20;;;;;;;25.50;12.50;;;;;;;-1.44;100.00;100335.69;5062896;28;20040;-75
2022/12/10 08:01:47;;;;;;;20.98;11.93;;;;;;;-1.41;100.00;100335.78;5080878;28;20592;-73
2022/12/10 08:04:14;;;;;;;21.52;11.23;;;;;;;-1.40;100.00;100337.56;5082336;28;20044;-73
2022/12/10 08:06:40;;;;;;;28.85;13.27;;;;;;;-1.42;100.00;100342.63;5082318;28;20050;-74
2022/12/10 08:09:07;;;;;;;24.15;12.15;;;;;;;-1.43;100.00;100338.31;5071746;28;20044;-75
2022/12/10 08:11:36;;;;;;;23.77;12.85;;;;;;;-1.42;100.00;100344.31;5082670;28;20043;-74
2022/12/10 08:14:03;;;;;;;22.05;12.00;;;;;;;-1.45;100.00;100342.50;5079575;28;20040;-74
2022/12/10 08:16:31;;;;;;;26.73;13.23;;;;;;;-1.41;100.00;100340.94;5081539;28;20040;-76
2022/12/10 08:19:01;;;;;;;27.30;12.15;;;;;;;-1.39;100.00;100337.59;5063814;28;20052;-74
2022/12/10 08:21:31;;;;;;;22.70;12.98;;;;;;;-1.38;100.00;100333.34;5074776;28;20036;-75
2022/12/10 08:23:58;;;;;;;23.88;12.40;;;;;;;-1.34;100.00;100338.63;5075890;28;20078;-73
2022/12/10 08:26:29;;;;;;;27.65;13.45;;;;;;;-1.35;100.00;100336.88;5074318;28;20072;-73
2022/12/10 08:28:59;;;;;;;26.80;12.50;;;;;;;-1.33;100.00;100348.09;5074360;28;20039;-74
2022/12/10 08:31:27;;;;;;;21.77;11.75;;;;;;;-1.37;100.00;100348.81;5081649;28;20037;-74
2022/12/10 08:33:54;;;;;;;25.02;12.55;;;;;;;-1.40;100.00;100355.53;5064690;28;20526;-74
2022/12/10 08:36:21;;;;;;;25.10;11.52;;;;;;;-1.41;100.00;100354.66;5080175;28;20047;-75
2022/12/10 08:38:48;;;;;;;24.02;12.32;;;;;;;-1.42;100.00;100360.59;5077096;28;20071;-74
2022/12/10 08:41:21;;;;;;;25.27;12.40;;;;;;;-1.40;100.00;100360.66;5078667;28;20440;-76
2022/12/10 08:43:49;;;;;;;27.38;13.05;;;;;;;-1.38;100.00;100357.31;5076227;28;20036;-76
2022/12/10 08:46:17;;;;;;;25.63;12.35;;;;;;;-1.39;100.00;100364.97;5074567;28;20052;-75
2022/12/10 08:48:44;;;;;;;25.92;13.52;;;;;;;-1.41;100.00;100364.03;5076295;28;20051;-76
2022/12/10 08:51:16;;;;;;;26.20;11.80;;;;;;;-1.39;100.00;100365.84;5076103;28;20051;-73
2022/12/10 08:53:43;;;;;;;27.55;13.50;;;;;;;-1.35;100.00;100356.56;5075251;28;20119;-73
2022/12/10 08:56:09;;;;;;;29.30;13.55;;;;;;;-1.31;100.00;100354.97;5075736;28;20044;-75
2022/12/10 08:58:38;;;;;;;29.55;15.50;;;;;;;-1.27;100.00;100369.66;5058116;28;20369;-75
2022/12/10 09:01:11;;;;;;;28.13;13.25;;;;;;;-1.24;100.00;100368.06;5076789;28;20032;-76
2022/12/10 09:03:37;;;;;;;29.23;12.35;;;;;;;-1.21;100.00;100368.16;5083326;28;20554;-74
2022/12/10 09:06:06;;;;;;;31.08;13.00;;;;;;;-1.18;100.00;100369.97;5078508;28;20043;-74
2022/12/10 09:08:34;;;;;;;28.65;13.45;;;;;;;-1.13;100.00;100373.56;5065989;28;20121;-74
2022/12/10 09:11:17;;;;;;;30.08;13.32;;;;;;;-1.12;100.00;100374.44;5078429;28;20068;-75
2022/12/10 09:13:44;;;;;;;28.27;13.18;;;;;;;-1.12;100.00;100375.31;5082668;28;20052;-73
2022/12/10 09:16:11;;;;;;;36.42;13.57;;;;;;;-1.10;100.00;100380.50;5080794;28;20036;-75
2022/12/10 09:18:38;;;;;;;28.42;12.48;;;;;;;-1.11;100.00;100386.47;5069983;28;20596;-75
2022/12/10 09:21:15;;;;;;;27.42;13.88;;;;;;;-1.09;100.00;100385.69;5083279;28;20134;-74
2022/12/10 09:23:43;;;;;;;30.77;13.20;;;;;;;-1.07;100.00;100390.88;5084560;28;20046;-74
2022/12/10 09:26:14;;;;;;;37.38;15.57;;;;;;;-1.08;100.00;100390.00;5084285;28;20044;-76
2022/12/10 09:28:42;;;;;;;32.28;15.70;;;;;;;-1.09;100.00;100388.25;5079093;28;20135;-75
2022/12/10 09:31:10;;;;;;;30.90;14.45;;;;;;;-1.10;100.00;100388.22;5080546;28;20802;-76
2022/12/10 09:33:38;;;;;;;35.25;14.32;;;;;;;-1.09;100.00;100384.84;5079372;28;20101;-74
2022/12/10 09:36:08;;;;;;;36.63;15.50;;;;;;;-1.07;100.00;100391.78;5085893;28;20408;-74
2022/12/10 09:38:44;;;;;;;32.33;15.10;;;;;;;-1.08;100.00;100390.00;5082800;28;20173;-76
2022/12/10 09:42:02;;;;;;;30.30;14.85;;;;;;;-1.09;100.00;100393.41;5061566;28;20047;-75
2022/12/10 09:45:10;;;;;;;30.17;15.40;;;;;;;-1.11;100.00;100386.47;5082777;28;20071;-75
2022/12/10 09:47:52;;;;;;;32.15;14.13;;;;;;;-1.13;100.00;100385.53;5058840;28;20127;-74
2022/12/10 09:51:00;;;;;;;32.50;14.82;;;;;;;-1.10;100.00;100388.22;5077056;28;20482;-76
2022/12/10 09:53:29;;;;;;;31.65;13.48;;;;;;;-1.01;100.00;100386.81;5060296;28;20056;-75
2022/12/10 09:55:58;;;;;;;31.40;15.82;;;;;;;-0.97;100.00;100386.94;5042150;28;20155;-78
2022/12/10 09:58:28;;;;;;;34.90;13.70;;;;;;;-0.96;100.00;100389.56;5059433;28;20094;-74
2022/12/10 10:01:05;;;;;;;29.40;13.18;;;;;;;-0.90;100.00;100388.88;5064585;28;20043;-74
2022/12/10 10:03:50;;;;;;;25.10;12.50;;;;;;;-0.93;100.00;100384.50;5059986;28;20159;-75
2022/12/10 10:06:17;;;;;;;30.88;14.63;;;;;;;-0.94;100.00;100385.34;5059955;28;20136;-74
2022/12/10 10:08:49;;;;;;;26.70;14.23;;;;;;;-0.89;100.00;100388.06;5042997;28;20041;-76
2022/12/10 10:11:36;;;;;;;29.50;14.48;;;;;;;-0.86;100.00;100383.00;5058631;28;20036;-76
2022/12/10 10:14:25;;;;;;;27.83;12.93;;;;;;;-0.85;100.00;100393.38;5042604;28;20127;-76
2022/12/10 10:16:59;;;;;;;27.35;11.82;;;;;;;-0.90;100.00;100386.31;5055146;28;20043;-75
2022/12/10 10:19:32;;;;;;;30.35;13.95;;;;;;;-0.98;100.00;100386.03;5056337;28;20545;-76
2022/12/10 10:21:59;;;;;;;34.30;14.98;;;;;;;-0.98;100.00;100398.03;5057129;28;20051;-76
2022/12/10 10:24:40;;;;;;;28.50;14.90;;;;;;;-0.98;100.00;100385.19;5061561;28;20136;-76
2022/12/10 10:27:17;;;;;;;25.08;14.10;;;;;;;-0.98;100.00;100387.75;5046192;28;20048;-75
2022/12/10 10:29:51;;;;;;;30.42;14.60;;;;;;;-0.94;100.00;100384.47;5059692;28;20062;-79
2022/12/10 10:32:24;;;;;;;28.35;14.20;;;;;;;-0.90;100.00;100388.88;5059607;28;20127;-76
2022/12/10 10:34:57;;;;;;;27.42;12.88;;;;;;;-0.85;100.00;100387.34;5038733;28;20135;-75
2022/12/10 10:37:29;;;;;;;27.35;14.45;;;;;;;-0.82;100.00;100386.56;5055436;28;20055;-75
2022/12/10 10:39:57;;;;;;;37.28;16.33;;;;;;;-0.79;100.00;100390.09;5058199;28;20044;-75
2022/12/10 10:42:44;;;;;;;36.88;18.17;;;;;;;-0.76;100.00;100391.91;5075047;28;20131;-75
2022/12/10 10:45:32;;;;;;;33.95;15.93;;;;;;;-0.76;100.00;100389.34;5081913;28;20036;-74
2022/12/10 10:48:17;;;;;;;31.88;15.65;;;;;;;-0.78;100.00;100389.28;5063649;28;20083;-76
2022/12/10 10:50:45;;;;;;;27.70;13.98;;;;;;;-0.81;100.00;100393.44;5066576;28;20483;-76
2022/12/10 10:53:46;;;;;;;29.80;15.60;;;;;;;-0.82;100.00;100390.03;5082689;28;20055;-76
2022/12/10 10:56:29;;;;;;;25.83;13.15;;;;;;;-0.85;100.00;100388.22;5080317;28;20067;-75
2022/12/10 10:59:27;;;;;;;29.00;14.43;;;;;;;-0.87;100.00;100389.84;5075448;28;20036;-76
2022/12/10 11:02:00;;;;;;;27.27;14.00;;;;;;;-0.87;100.00;100402.69;5080944;28;20044;-77
2022/12/10 11:04:39;;;;;;;29.30;13.25;;;;;;;-0.90;100.00;100392.34;5078533;28;20052;-77
2022/12/10 11:07:19;;;;;;;26.73;12.60;;;;;;;-0.92;100.00;100398.25;5078488;28;20394;-77
2022/12/10 11:09:46;;;;;;;28.58;14.73;;;;;;;-0.94;100.00;100398.19;5082308;28;20130;-78
2022/12/10 11:12:38;;;;;;;26.65;14.30;;;;;;;-0.94;100.00;100400.78;5079747;28;20047;-77
2022/12/10 11:15:24;;;;;;;28.15;14.68;;;;;;;-0.95;100.00;100393.88;5083163;28;20044;-76
2022/12/10 11:17:55;;;;;;;31.48;13.63;;;;;;;-0.96;100.00;100397.25;5083432;28;20043;-75
2022/12/10 11:20:27;;;;;;;24.95;11.60;;;;;;;-0.97;100.00;100397.22;5079090;28;20219;-77
2022/12/10 11:23:10;;;;;;;28.63;14.40;;;;;;;-1.01;100.00;100388.53;5078876;28;20074;-77
2022/12/10 11:26:10;;;;;;;27.85;14.25;;;;;;;-1.00;100.00;100382.56;5076508;28;20051;-75
2022/12/10 11:29:12;;;;;;;33.03;14.73;;;;;;;-1.02;100.00;100389.34;5078291;28;20068;-78
2022/12/10 11:31:54;;;;;;;28.63;13.95;;;;;;;-1.02;100.00;100387.66;5064608;28;20044;-75